Time;durP1;ratioP1;P1;durP2;ratioP2;P2;SDS_P1;SDS_P2;PMS_P1;PMS_P2;Temp;Humidity;BMP_temperature;BMP_pressure;BME280_temperature;BME280_humidity;BME280_pressure;Samples;Min_cycle;Max_cycle;Signal;HPM_P1;HPM_P2
2023/01/02 00:07:41;;;;;;;0.20;0.10;;;9.20;99.90;;;;;;20982092;28;20406;-71
2023/01/02 00:17:45;;;;;;;0.20;0.10;;;9.40;99.90;;;;;;20962048;28;20734;-71
2023/01/02 00:27:50;;;;;;;0.20;0.10;;;9.40;99.90;;;;;;20965201;28;20406;-71
2023/01/02 00:37:54;;;;;;;0.20;0.10;;;9.40;99.90;;;;;;20947390;28;20742;-72
2023/01/02 00:47:59;;;;;;;0.20;0.10;;;9.20;99.90;;;;;;20981676;28;20402;-70
2023/01/02 00:58:02;;;;;;;0.20;0.10;;;9.30;99.90;;;;;;20981296;28;20410;-71
2023/01/02 01:08:08;;;;;;;0.20;0.10;;;9.10;99.90;;;;;;20962519;28;20406;-71
2023/01/02 01:18:12;;;;;;;0.20;0.10;;;9.00;99.90;;;;;;20941735;28;20722;-71
2023/01/02 01:38:38;;;;;;;0.20;0.10;;;8.90;99.90;;;;;;20960407;28;20405;-72
2023/01/02 01:59:05;;;;;;;0.20;0.10;;;9.40;99.90;;;;;;20993638;28;20402;-71
2023/01/02 02:09:15;;;;;;;0.20;0.10;;;9.60;99.90;;;;;;20976007;28;20428;-71
2023/01/02 02:19:59;;;;;;;0.20;0.10;;;9.20;99.90;;;;;;20991816;28;20401;-70
2023/01/02 02:30:27;;;;;;;0.20;0.10;;;9.20;99.90;;;;;;20943324;28;20418;-71
2023/01/02 02:40:43;;;;;;;0.20;0.10;;;9.30;99.90;;;;;;20991320;28;20397;-71
2023/01/02 02:50:56;;;;;;;0.20;0.10;;;9.40;99.90;;;;;;20990700;28;20398;-70
2023/01/02 03:01:05;;;;;;;0.20;0.10;;;9.60;99.90;;;;;;20972011;28;20430;-70
2023/01/02 03:11:12;;;;;;;0.20;0.10;;;9.60;99.90;;;;;;20951092;28;20405;-71
2023/01/02 03:21:35;;;;;;;0.20;0.10;;;9.80;99.90;;;;;;20988719;28;20493;-71
2023/01/02 03:31:45;;;;;;;0.20;0.10;;;9.40;99.90;;;;;;20986399;28;20483;-71
2023/01/02 03:41:54;;;;;;;0.20;0.10;;;9.40;99.90;;;;;;20968854;28;20402;-71
2023/01/02 03:52:00;;;;;;;0.20;0.10;;;9.00;99.90;;;;;;20968349;28;20508;-72
2023/01/02 04:02:10;;;;;;;0.20;0.10;;;8.80;99.90;;;;;;20950565;28;20406;-71
2023/01/02 04:12:37;;;;;;;0.20;0.10;;;9.10;99.90;;;;;;20966103;28;20427;-70
2023/01/02 04:22:48;;;;;;;0.20;0.10;;;9.00;99.90;;;;;;20983337;28;20487;-72
2023/01/02 04:32:54;;;;;;;0.20;0.10;;;9.30;99.90;;;;;;20965335;28;20409;-72
2023/01/02 04:42:58;;;;;;;0.20;0.10;;;9.50;99.90;;;;;;20982214;28;20394;-72
2023/01/02 04:53:04;;;;;;;0.20;0.10;;;9.30;99.90;;;;;;20963329;28;20418;-70
2023/01/02 05:03:08;;;;;;;0.20;0.10;;;9.30;99.90;;;;;;20960595;28;20414;-72
2023/01/02 05:13:13;;;;;;;0.20;0.10;;;9.00;99.90;;;;;;20939284;28;20422;-69
2023/01/02 05:33:40;;;;;;;0.20;0.10;;;8.70;99.90;;;;;;20942181;28;20406;-70
2023/01/02 05:43:43;;;;;;;0.20;0.10;;;8.50;99.90;;;;;;20960081;28;20401;-70
2023/01/02 05:53:49;;;;;;;0.20;0.10;;;8.60;99.90;;;;;;20963337;28;20422;-70
2023/01/02 06:03:55;;;;;;;0.20;0.10;;;9.00;99.90;;;;;;20897964;28;20398;-71
2023/01/02 06:14:00;;;;;;;0.20;0.10;;;9.00;99.90;;;;;;20902610;28;20451;-70
2023/01/02 06:24:04;;;;;;;0.20;0.10;;;9.10;99.90;;;;;;20893265;28;20404;-70
2023/01/02 06:34:10;;;;;;;0.20;0.10;;;9.30;99.90;;;;;;20892908;28;20416;-69
2023/01/02 06:44:13;;;;;;;0.20;0.10;;;9.70;99.90;;;;;;20904758;28;20446;-71
2023/01/02 06:54:37;;;;;;;0.20;0.10;;;9.70;99.90;;;;;;20888602;28;20416;-71
2023/01/02 07:04:41;;;;;;;0.20;0.10;;;9.80;99.90;;;;;;20904328;28;20404;-71
2023/01/02 07:14:46;;;;;;;0.20;0.10;;;9.70;99.90;;;;;;20887555;28;20411;-71
2023/01/02 07:24:49;;;;;;;0.20;0.10;;;9.70;99.90;;;;;;20904341;28;20844;-68
2023/01/02 07:34:54;;;;;;;0.20;0.10;;;9.60;99.90;;;;;;20904094;28;20419;-75
2023/01/02 07:44:58;;;;;;;0.20;0.00;;;9.60;99.90;;;;;;20903606;28;20411;-71
2023/01/02 07:55:04;;;;;;;0.20;0.10;;;10.00;99.90;;;;;;20901094;28;20895;-71
2023/01/02 08:05:08;;;;;;;0.20;0.10;;;10.40;99.90;;;;;;20943195;28;20413;-71
2023/01/02 08:15:14;;;;;;;0.20;0.10;;;10.90;99.90;;;;;;20983186;28;20413;-72
2023/01/02 08:25:18;;;;;;;0.20;0.10;;;11.50;99.90;;;;;;20964742;28;20440;-72
2023/01/02 08:35:23;;;;;;;0.20;0.10;;;12.70;99.90;;;;;;20946327;28;20418;-72
2023/01/02 08:45:41;;;;;;;0.20;0.03;;;13.60;99.90;;;;;;20981238;28;20398;-72
2023/01/02 08:55:46;;;;;;;0.20;0.10;;;14.40;99.90;;;;;;20961451;28;20845;-70
2023/01/02 09:05:50;;;;;;;0.20;0.10;;;13.60;99.90;;;;;;20978267;28;20417;-70
2023/01/02 09:15:55;;;;;;;0.20;0.10;;;13.80;99.90;;;;;;20974389;28;20414;-70
2023/01/02 09:25:59;;;;;;;0.20;0.00;;;13.50;99.90;;;;;;20957359;28;20406;-68
2023/01/02 09:36:22;;;;;;;0.20;0.10;;;13.70;99.90;;;;;;20974995;28;20518;-69
2023/01/02 09:46:31;;;;;;;0.20;0.10;;;14.20;99.90;;;;;;20974672;28;20398;-69
2023/01/02 09:56:40;;;;;;;0.20;0.10;;;14.40;99.90;;;;;;20956601;28;20418;-69
2023/01/02 10:06:49;;;;;;;0.20;0.10;;;14.30;99.90;;;;;;20952587;28;20390;-71
2023/01/02 10:16:57;;;;;;;0.20;0.10;;;14.40;99.90;;;;;;20960659;28;20935;-71
2023/01/02 10:27:02;;;;;;;0.20;0.10;;;15.00;99.90;;;;;;20912303;28;20396;-69
2023/01/02 10:37:13;;;;;;;0.20;0.00;;;15.40;99.90;;;;;;20929015;28;20514;-69
2023/01/02 10:47:24;;;;;;;0.20;0.07;;;16.00;99.90;;;;;;20942917;28;20413;-70
2023/01/02 10:57:39;;;;;;;0.20;0.00;;;16.70;99.90;;;;;;20986734;28;20410;-69
2023/01/02 11:07:48;;;;;;;0.20;0.10;;;17.40;99.90;;;;;;20985005;28;20402;-70
2023/01/02 11:17:53;;;;;;;0.20;0.10;;;17.20;99.90;;;;;;20983897;28;20536;-69
2023/01/02 11:27:59;;;;;;;0.20;0.10;;;17.30;99.90;;;;;;20966071;28;20913;-69
2023/01/02 11:38:04;;;;;;;0.20;0.10;;;17.40;99.90;;;;;;20950841;28;20409;-68
2023/01/02 11:48:14;;;;;;;0.20;0.10;;;16.30;99.90;;;;;;20967116;28;20410;-70
2023/01/02 11:58:24;;;;;;;0.20;0.10;;;17.30;99.90;;;;;;20983492;28;20513;-71
2023/01/02 12:08:37;;;;;;;0.20;0.00;;;17.50;99.90;;;;;;20946134;28;20465;-70
2023/01/02 12:19:20;;;;;;;0.20;0.10;;;17.80;99.90;;;;;;20980306;28;20916;-71
2023/01/02 12:29:47;;;;;;;0.20;0.10;;;17.40;99.90;;;;;;20923716;28;20424;-70
2023/01/02 12:40:11;;;;;;;0.20;0.00;;;17.20;99.90;;;;;;20959556;28;20717;-70
2023/01/02 12:50:50;;;;;;;0.20;0.00;;;17.20;99.90;;;;;;20906005;28;20396;-67
2023/01/02 13:01:03;;;;;;;0.20;0.00;;;17.40;99.90;;;;;;20868482;28;20399;-68
2023/01/02 13:11:10;;;;;;;0.20;0.10;;;17.20;99.90;;;;;;20953771;28;20429;-70
2023/01/02 13:21:23;;;;;;;0.20;0.10;;;17.10;99.90;;;;;;20975697;28;20734;-68
2023/01/02 13:31:30;;;;;;;0.20;0.10;;;17.10;99.90;;;;;;20976258;28;20402;-69
2023/01/02 13:52:19;;;;;;;0.20;0.03;;;17.20;99.90;;;;;;20903933;28;20509;-70
2023/01/02 14:12:51;;;;;;;0.20;0.10;;;17.00;99.90;;;;;;20917262;28;20443;-70
2023/01/02 14:23:01;;;;;;;0.20;0.03;;;16.90;99.90;;;;;;20870005;28;20430;-69
2023/01/02 14:33:07;;;;;;;0.20;0.00;;;16.60;99.90;;;;;;20870220;28;20418;-70
2023/01/02 14:43:32;;;;;;;0.20;0.08;;;16.50;99.90;;;;;;20908202;28;20394;-70
2023/01/02 14:53:40;;;;;;;0.20;0.10;;;16.40;99.90;;;;;;20968638;28;20424;-70
2023/01/02 15:03:53;;;;;;;0.20;0.10;;;16.20;99.90;;;;;;20978685;28;20424;-70
2023/01/02 15:14:00;;;;;;;0.20;0.00;;;16.30;99.90;;;;;;20918922;28;20474;-69
2023/01/02 15:24:21;;;;;;;0.20;0.10;;;16.10;99.90;;;;;;20942988;28;20541;-70
2023/01/02 15:34:30;;;;;;;0.20;0.10;;;16.00;99.90;;;;;;20962900;28;20470;-69
2023/01/02 15:45:10;;;;;;;0.20;0.10;;;15.80;99.90;;;;;;20980513;28;20414;-70
2023/01/02 15:55:16;;;;;;;0.20;0.05;;;15.70;99.90;;;;;;20979408;28;20916;-70
2023/01/02 16:05:21;;;;;;;0.20;0.03;;;15.60;99.90;;;;;;20984589;28;20406;-70
2023/01/02 16:15:31;;;;;;;0.20;0.00;;;15.30;99.90;;;;;;20941947;28;20505;-70
2023/01/02 16:25:45;;;;;;;0.20;0.10;;;14.90;99.90;;;;;;20945131;28;20496;-69
2023/01/02 16:35:52;;;;;;;0.20;0.10;;;14.80;99.90;;;;;;20945274;28;20485;-73
2023/01/02 16:46:08;;;;;;;0.20;0.00;;;14.90;99.90;;;;;;20945249;28;20386;-70
2023/01/02 16:56:14;;;;;;;0.20;0.10;;;14.80;99.90;;;;;;20977787;28;20402;-71
2023/01/02 17:06:20;;;;;;;0.20;0.00;;;14.80;99.90;;;;;;20979165;28;20738;-70
2023/01/02 17:16:23;;;;;;;0.20;0.00;;;14.90;99.90;;;;;;20978398;28;20468;-70
2023/01/02 17:26:29;;;;;;;0.20;0.10;;;14.70;99.90;;;;;;20958175;28;20470;-70
2023/01/02 17:46:56;;;;;;;0.20;0.07;;;14.60;99.90;;;;;;20949658;28;20873;-70
2023/01/02 17:57:23;;;;;;;0.20;0.00;;;14.50;99.90;;;;;;20954378;28;20525;-70
2023/01/02 18:07:28;;;;;;;0.20;0.10;;;14.60;99.90;;;;;;20970549;28;20410;-69
2023/01/02 18:17:32;;;;;;;0.20;0.03;;;14.80;99.90;;;;;;20952448;28;20497;-69
2023/01/02 18:27:37;;;;;;;0.20;0.10;;;14.90;99.90;;;;;;20952749;28;21109;-70
2023/01/02 18:37:42;;;;;;;0.20;0.10;;;15.00;99.90;;;;;;20979442;28;20477;-70
2023/01/02 18:47:52;;;;;;;0.20;0.00;;;15.20;99.90;;;;;;20985201;28;20801;-70
2023/01/02 18:58:00;;;;;;;0.20;0.10;;;15.00;99.90;;;;;;20966998;28;20955;-69
2023/01/02 19:08:18;;;;;;;0.20;0.10;;;14.90;99.90;;;;;;20965414;28;20406;-71
2023/01/02 19:18:34;;;;;;;0.20;0.10;;;14.80;99.90;;;;;;20984047;28;20417;-70
2023/01/02 19:28:43;;;;;;;0.20;0.10;;;14.50;99.90;;;;;;20965273;28;20479;-69
2023/01/02 19:38:49;;;;;;;0.20;0.03;;;14.50;99.90;;;;;;20980749;28;20967;-70
2023/01/02 19:48:55;;;;;;;0.20;0.00;;;14.00;99.90;;;;;;20961345;28;20402;-66
2023/01/02 19:58:59;;;;;;;0.20;0.10;;;13.70;99.90;;;;;;20981527;28;20501;-71
2023/01/02 20:09:24;;;;;;;0.20;0.10;;;13.20;99.90;;;;;;20979076;28;20518;-70
2023/01/02 20:19:28;;;;;;;0.20;0.00;;;13.00;99.90;;;;;;20955257;28;20409;-72
2023/01/02 20:29:33;;;;;;;0.20;0.10;;;12.60;99.90;;;;;;20959618;28;20394;-70
2023/01/02 20:39:37;;;;;;;0.20;0.10;;;12.50;99.90;;;;;;20958403;28;20418;-71
2023/01/02 20:49:43;;;;;;;0.20;0.00;;;12.40;99.90;;;;;;20976243;28;20406;-70
2023/01/02 20:59:47;;;;;;;0.20;0.10;;;12.40;99.90;;;;;;20956360;28;20417;-70
2023/01/02 21:09:56;;;;;;;0.20;0.10;;;12.20;99.90;;;;;;20973786;28;20523;-70
2023/01/02 21:20:00;;;;;;;0.20;0.10;;;12.00;99.90;;;;;;20975003;28;20410;-71
2023/01/02 21:30:06;;;;;;;0.20;0.10;;;12.10;99.90;;;;;;20973083;28;20462;-72
2023/01/02 21:40:28;;;;;;;0.20;0.10;;;12.00;99.90;;;;;;20972241;28;20417;-72
2023/01/02 21:50:34;;;;;;;0.20;0.10;;;11.80;99.90;;;;;;20964417;28;20496;-73
2023/01/02 22:00:37;;;;;;;0.20;0.10;;;11.90;99.90;;;;;;20958716;28;20445;-71
2023/01/02 22:10:44;;;;;;;0.20;0.00;;;11.80;99.90;;;;;;20984113;28;20414;-71
2023/01/02 22:20:48;;;;;;;0.20;0.10;;;11.80;99.90;;;;;;20957759;28;20731;-72
2023/01/02 22:31:11;;;;;;;0.20;0.10;;;11.90;99.90;;;;;;20974033;28;20386;-72
2023/01/02 22:41:16;;;;;;;0.20;0.20;;;11.90;99.90;;;;;;20967301;28;20521;-72
2023/01/02 22:51:21;;;;;;;0.20;0.10;;;11.80;99.90;;;;;;20974791;28;20386;-71
2023/01/02 23:01:46;;;;;;;0.20;0.10;;;11.60;99.90;;;;;;20989469;28;20406;-72
2023/01/02 23:11:52;;;;;;;0.20;0.00;;;11.70;99.90;;;;;;20979299;28;20512;-71
2023/01/02 23:21:58;;;;;;;0.20;0.10;;;11.70;99.90;;;;;;20944882;28;20426;-69
2023/01/02 23:32:05;;;;;;;0.20;0.10;;;11.70;99.90;;;;;;20894029;28;20433;-71
2023/01/02 23:42:09;;;;;;;0.20;0.00;;;11.70;99.90;;;;;;20987612;28;20406;-71
2023/01/02 23:52:14;;;;;;;0.20;0.10;;;12.20;99.90;;;;;;20952752;28;20395;-72
